KERI/ERI METAR and TAF weather

Enter ICAO airport designator
Station Type Date Time Source
KERI METAR 2022/07/03 13:51 UTC NOAA

KERI 031351Z 02010KT 10SM CLR 22/09 A3016 RMK AO2 SLP211 T02170094


Station Type Date Time Source
KERI Decoded METAR 2022/07/03 13:51 UTC NOAA

ERIE INTERNATIONAL AIRPORT, PA, United States (KERI) 42-05N 080-11W 222M
Jul 03, 2022 - 09:51 AM EDT / 2022.07.03 1351 UTC
Wind: from the NNE (020 degrees) at 12 MPH (10 KT):0
Visibility: 10 mile(s):0
Sky conditions: clear
Temperature: 71.1 F (21.7 C)
Dew Point: 48.9 F (9.4 C)
Relative Humidity: 45%
Pressure (altimeter): 30.16 in. Hg (1021 hPa)
ob: KERI 031351Z 02010KT 10SM CLR 22/09 A3016 RMK AO2 SLP211 T02170094
cycle: 14

Station Type Date Time Source
KERI TAF 2022/07/03 12:22 UTC NOAA

TAF KERI 031120Z 0312/0412 04007KT P6SM SKC
FM031500 34007KT P6SM SKC
FM032300 VRB03KT P6SM FEW250
FM040600 15007KT P6SM BKN250

Example: see airport list